sensor_id;sensor_type;location;lat;lon;timestamp;P1;durP1;ratioP1;P2;durP2;ratioP2
68940;SDS011;55982;51.476;7.552;2022-10-31T00:01:46;19.23;;;8.93;;
68940;SDS011;55982;51.476;7.552;2022-10-31T00:04:11;23.05;;;8.20;;
68940;SDS011;55982;51.476;7.552;2022-10-31T00:06:37;21.33;;;9.27;;
68940;SDS011;55982;51.476;7.552;2022-10-31T00:09:03;25.85;;;9.75;;
68940;SDS011;55982;51.476;7.552;2022-10-31T00:11:29;21.80;;;9.63;;
68940;SDS011;55982;51.476;7.552;2022-10-31T00:13:56;23.27;;;10.05;;
68940;SDS011;55982;51.476;7.552;2022-10-31T00:16:23;19.90;;;10.27;;
68940;SDS011;55982;51.476;7.552;2022-10-31T00:18:53;25.70;;;9.98;;
68940;SDS011;55982;51.476;7.552;2022-10-31T00:21:20;23.65;;;10.45;;
68940;SDS011;55982;51.476;7.552;2022-10-31T00:23:47;20.92;;;11.02;;
68940;SDS011;55982;51.476;7.552;2022-10-31T00:26:12;22.73;;;11.55;;
68940;SDS011;55982;51.476;7.552;2022-10-31T00:28:38;19.85;;;9.85;;
68940;SDS011;55982;51.476;7.552;2022-10-31T00:31:04;21.20;;;10.20;;
68940;SDS011;55982;51.476;7.552;2022-10-31T00:33:32;25.90;;;12.15;;
68940;SDS011;55982;51.476;7.552;2022-10-31T00:35:59;19.25;;;9.98;;
68940;SDS011;55982;51.476;7.552;2022-10-31T00:38:24;25.02;;;10.95;;
68940;SDS011;55982;51.476;7.552;2022-10-31T00:40:50;21.80;;;11.88;;
68940;SDS011;55982;51.476;7.552;2022-10-31T00:43:15;26.58;;;11.40;;
68940;SDS011;55982;51.476;7.552;2022-10-31T00:45:41;24.75;;;11.52;;
68940;SDS011;55982;51.476;7.552;2022-10-31T00:48:07;18.05;;;9.98;;
68940;SDS011;55982;51.476;7.552;2022-10-31T00:50:33;22.58;;;10.82;;
68940;SDS011;55982;51.476;7.552;2022-10-31T00:52:58;22.38;;;10.88;;
68940;SDS011;55982;51.476;7.552;2022-10-31T00:55:23;23.55;;;10.57;;
68940;SDS011;55982;51.476;7.552;2022-10-31T00:57:49;20.88;;;10.63;;
68940;SDS011;55982;51.476;7.552;2022-10-31T01:00:14;18.58;;;10.23;;
68940;SDS011;55982;51.476;7.552;2022-10-31T01:02:40;17.73;;;10.18;;
68940;SDS011;55982;51.476;7.552;2022-10-31T01:05:06;20.83;;;10.65;;
68940;SDS011;55982;51.476;7.552;2022-10-31T01:07:31;23.63;;;10.40;;
68940;SDS011;55982;51.476;7.552;2022-10-31T01:10:00;25.88;;;10.48;;
68940;SDS011;55982;51.476;7.552;2022-10-31T01:12:25;20.63;;;10.30;;
68940;SDS011;55982;51.476;7.552;2022-10-31T01:14:50;21.85;;;10.10;;
68940;SDS011;55982;51.476;7.552;2022-10-31T01:17:16;19.83;;;9.35;;
68940;SDS011;55982;51.476;7.552;2022-10-31T01:19:41;17.63;;;10.10;;
68940;SDS011;55982;51.476;7.552;2022-10-31T01:22:06;17.17;;;10.00;;
68940;SDS011;55982;51.476;7.552;2022-10-31T01:24:32;20.02;;;10.10;;
68940;SDS011;55982;51.476;7.552;2022-10-31T01:26:57;19.45;;;10.00;;
68940;SDS011;55982;51.476;7.552;2022-10-31T01:29:23;21.45;;;9.82;;
68940;SDS011;55982;51.476;7.552;2022-10-31T01:31:48;18.98;;;9.75;;
68940;SDS011;55982;51.476;7.552;2022-10-31T01:34:14;24.70;;;10.52;;
68940;SDS011;55982;51.476;7.552;2022-10-31T01:36:42;20.10;;;10.07;;
68940;SDS011;55982;51.476;7.552;2022-10-31T01:39:10;19.63;;;9.80;;
68940;SDS011;55982;51.476;7.552;2022-10-31T01:41:38;19.67;;;9.05;;
68940;SDS011;55982;51.476;7.552;2022-10-31T01:49:15;19.65;;;9.18;;
68940;SDS011;55982;51.476;7.552;2022-10-31T01:51:46;21.45;;;10.82;;
68940;SDS011;55982;51.476;7.552;2022-10-31T01:54:16;21.33;;;10.00;;
68940;SDS011;55982;51.476;7.552;2022-10-31T01:56:46;23.52;;;11.32;;
68940;SDS011;55982;51.476;7.552;2022-10-31T01:59:15;23.75;;;9.75;;
68940;SDS011;55982;51.476;7.552;2022-10-31T02:01:44;20.38;;;10.50;;
68940;SDS011;55982;51.476;7.552;2022-10-31T02:04:11;20.52;;;10.00;;
68940;SDS011;55982;51.476;7.552;2022-10-31T02:06:38;28.83;;;12.10;;
68940;SDS011;55982;51.476;7.552;2022-10-31T02:09:09;22.42;;;11.75;;
68940;SDS011;55982;51.476;7.552;2022-10-31T02:11:37;25.90;;;10.70;;
68940;SDS011;55982;51.476;7.552;2022-10-31T02:14:03;21.02;;;10.25;;
68940;SDS011;55982;51.476;7.552;2022-10-31T02:16:28;20.73;;;10.02;;
68940;SDS011;55982;51.476;7.552;2022-10-31T02:18:54;22.38;;;11.18;;
68940;SDS011;55982;51.476;7.552;2022-10-31T02:32:24;23.52;;;11.25;;
68940;SDS011;55982;51.476;7.552;2022-10-31T02:48:19;30.00;;;13.90;;
68940;SDS011;55982;51.476;7.552;2022-10-31T02:50:50;27.23;;;13.07;;
68940;SDS011;55982;51.476;7.552;2022-10-31T02:53:20;25.38;;;13.88;;
68940;SDS011;55982;51.476;7.552;2022-10-31T02:56:06;28.33;;;13.65;;
68940;SDS011;55982;51.476;7.552;2022-10-31T02:58:38;26.50;;;14.10;;
68940;SDS011;55982;51.476;7.552;2022-10-31T03:06:25;25.63;;;13.52;;
68940;SDS011;55982;51.476;7.552;2022-10-31T03:11:42;27.00;;;13.73;;
68940;SDS011;55982;51.476;7.552;2022-10-31T03:17:07;29.90;;;15.82;;
68940;SDS011;55982;51.476;7.552;2022-10-31T03:19:42;35.58;;;16.23;;
68940;SDS011;55982;51.476;7.552;2022-10-31T03:22:23;33.45;;;15.63;;
68940;SDS011;55982;51.476;7.552;2022-10-31T03:24:52;31.02;;;16.48;;
68940;SDS011;55982;51.476;7.552;2022-10-31T03:27:23;34.38;;;16.55;;
68940;SDS011;55982;51.476;7.552;2022-10-31T03:29:52;35.38;;;14.95;;
68940;SDS011;55982;51.476;7.552;2022-10-31T03:35:01;28.95;;;15.35;;
68940;SDS011;55982;51.476;7.552;2022-10-31T03:37:30;33.97;;;16.75;;
68940;SDS011;55982;51.476;7.552;2022-10-31T03:39:58;29.15;;;15.52;;
68940;SDS011;55982;51.476;7.552;2022-10-31T03:42:30;32.72;;;16.13;;
68940;SDS011;55982;51.476;7.552;2022-10-31T03:45:06;36.30;;;16.05;;
68940;SDS011;55982;51.476;7.552;2022-10-31T03:47:36;32.80;;;16.42;;
68940;SDS011;55982;51.476;7.552;2022-10-31T03:50:04;35.50;;;16.50;;
68940;SDS011;55982;51.476;7.552;2022-10-31T03:52:36;36.83;;;16.23;;
68940;SDS011;55982;51.476;7.552;2022-10-31T03:55:07;36.13;;;15.07;;
68940;SDS011;55982;51.476;7.552;2022-10-31T03:57:45;25.73;;;13.13;;
68940;SDS011;55982;51.476;7.552;2022-10-31T04:00:18;28.77;;;12.75;;
68940;SDS011;55982;51.476;7.552;2022-10-31T04:02:55;27.83;;;12.02;;
68940;SDS011;55982;51.476;7.552;2022-10-31T04:05:22;22.20;;;12.30;;
68940;SDS011;55982;51.476;7.552;2022-10-31T04:07:50;22.20;;;11.15;;
68940;SDS011;55982;51.476;7.552;2022-10-31T04:10:18;24.92;;;11.40;;
68940;SDS011;55982;51.476;7.552;2022-10-31T04:12:47;20.65;;;10.63;;
68940;SDS011;55982;51.476;7.552;2022-10-31T04:15:16;25.10;;;10.88;;
68940;SDS011;55982;51.476;7.552;2022-10-31T04:17:42;22.70;;;11.30;;
68940;SDS011;55982;51.476;7.552;2022-10-31T04:20:15;22.13;;;10.45;;
68940;SDS011;55982;51.476;7.552;2022-10-31T04:22:40;26.40;;;12.30;;
68940;SDS011;55982;51.476;7.552;2022-10-31T04:25:06;22.52;;;11.85;;
68940;SDS011;55982;51.476;7.552;2022-10-31T04:27:32;24.13;;;12.38;;
68940;SDS011;55982;51.476;7.552;2022-10-31T04:29:57;26.75;;;13.48;;
68940;SDS011;55982;51.476;7.552;2022-10-31T04:32:24;23.83;;;12.60;;
68940;SDS011;55982;51.476;7.552;2022-10-31T04:34:49;27.45;;;14.15;;
68940;SDS011;55982;51.476;7.552;2022-10-31T04:37:15;27.42;;;13.52;;
68940;SDS011;55982;51.476;7.552;2022-10-31T04:39:40;33.63;;;14.02;;
68940;SDS011;55982;51.476;7.552;2022-10-31T04:42:05;29.48;;;14.38;;
68940;SDS011;55982;51.476;7.552;2022-10-31T04:44:31;31.27;;;13.80;;
68940;SDS011;55982;51.476;7.552;2022-10-31T04:46:56;35.20;;;15.10;;
68940;SDS011;55982;51.476;7.552;2022-10-31T04:49:21;30.17;;;13.55;;
68940;SDS011;55982;51.476;7.552;2022-10-31T04:51:47;24.88;;;13.63;;
68940;SDS011;55982;51.476;7.552;2022-10-31T04:54:12;27.95;;;13.60;;
68940;SDS011;55982;51.476;7.552;2022-10-31T04:56:37;28.67;;;13.93;;
68940;SDS011;55982;51.476;7.552;2022-10-31T04:59:03;37.90;;;15.07;;
68940;SDS011;55982;51.476;7.552;2022-10-31T05:01:28;29.65;;;14.63;;
68940;SDS011;55982;51.476;7.552;2022-10-31T05:03:54;30.13;;;13.98;;
68940;SDS011;55982;51.476;7.552;2022-10-31T05:06:19;39.88;;;16.30;;
68940;SDS011;55982;51.476;7.552;2022-10-31T05:08:44;32.38;;;15.60;;
68940;SDS011;55982;51.476;7.552;2022-10-31T05:11:10;28.70;;;15.27;;
68940;SDS011;55982;51.476;7.552;2022-10-31T05:13:35;39.83;;;16.65;;
68940;SDS011;55982;51.476;7.552;2022-10-31T05:16:01;35.00;;;16.58;;
68940;SDS011;55982;51.476;7.552;2022-10-31T05:18:27;37.67;;;17.08;;
68940;SDS011;55982;51.476;7.552;2022-10-31T05:20:53;33.63;;;16.63;;
68940;SDS011;55982;51.476;7.552;2022-10-31T05:23:18;34.78;;;16.17;;
68940;SDS011;55982;51.476;7.552;2022-10-31T05:25:43;29.58;;;15.05;;
68940;SDS011;55982;51.476;7.552;2022-10-31T05:28:09;32.53;;;15.55;;
68940;SDS011;55982;51.476;7.552;2022-10-31T05:30:34;33.22;;;16.70;;
68940;SDS011;55982;51.476;7.552;2022-10-31T05:33:00;35.83;;;17.02;;
68940;SDS011;55982;51.476;7.552;2022-10-31T05:35:29;43.22;;;20.10;;
68940;SDS011;55982;51.476;7.552;2022-10-31T05:37:57;35.90;;;19.17;;
68940;SDS011;55982;51.476;7.552;2022-10-31T05:40:24;40.88;;;19.48;;
68940;SDS011;55982;51.476;7.552;2022-10-31T05:42:51;48.13;;;20.20;;
68940;SDS011;55982;51.476;7.552;2022-10-31T05:45:17;45.25;;;20.35;;
68940;SDS011;55982;51.476;7.552;2022-10-31T05:47:56;43.03;;;20.10;;
68940;SDS011;55982;51.476;7.552;2022-10-31T05:50:26;42.10;;;19.13;;
68940;SDS011;55982;51.476;7.552;2022-10-31T05:52:57;40.67;;;19.77;;
68940;SDS011;55982;51.476;7.552;2022-10-31T05:55:25;37.88;;;19.90;;
68940;SDS011;55982;51.476;7.552;2022-10-31T05:57:51;39.83;;;19.90;;
68940;SDS011;55982;51.476;7.552;2022-10-31T06:00:18;40.75;;;19.10;;
68940;SDS011;55982;51.476;7.552;2022-10-31T06:02:44;38.30;;;19.00;;
68940;SDS011;55982;51.476;7.552;2022-10-31T06:05:09;35.97;;;18.15;;
68940;SDS011;55982;51.476;7.552;2022-10-31T06:07:35;35.97;;;19.27;;
68940;SDS011;55982;51.476;7.552;2022-10-31T06:10:01;42.67;;;20.90;;
68940;SDS011;55982;51.476;7.552;2022-10-31T06:12:29;38.58;;;19.77;;
68940;SDS011;55982;51.476;7.552;2022-10-31T06:14:54;45.03;;;21.98;;
68940;SDS011;55982;51.476;7.552;2022-10-31T06:17:19;39.70;;;20.17;;
68940;SDS011;55982;51.476;7.552;2022-10-31T06:19:45;47.83;;;23.15;;
68940;SDS011;55982;51.476;7.552;2022-10-31T06:22:10;37.60;;;21.80;;
68940;SDS011;55982;51.476;7.552;2022-10-31T06:24:38;46.08;;;21.42;;
68940;SDS011;55982;51.476;7.552;2022-10-31T06:27:04;40.53;;;21.15;;
68940;SDS011;55982;51.476;7.552;2022-10-31T06:29:30;42.10;;;21.42;;
68940;SDS011;55982;51.476;7.552;2022-10-31T06:31:55;44.40;;;21.95;;
68940;SDS011;55982;51.476;7.552;2022-10-31T06:34:20;40.42;;;20.95;;
68940;SDS011;55982;51.476;7.552;2022-10-31T06:36:46;41.83;;;20.20;;
68940;SDS011;55982;51.476;7.552;2022-10-31T06:39:12;52.80;;;22.50;;
68940;SDS011;55982;51.476;7.552;2022-10-31T06:41:38;46.15;;;20.92;;
68940;SDS011;55982;51.476;7.552;2022-10-31T06:44:04;45.03;;;20.95;;
68940;SDS011;55982;51.476;7.552;2022-10-31T06:46:30;36.88;;;20.38;;
68940;SDS011;55982;51.476;7.552;2022-10-31T06:48:56;42.80;;;20.98;;
68940;SDS011;55982;51.476;7.552;2022-10-31T06:51:21;40.10;;;20.58;;
68940;SDS011;55982;51.476;7.552;2022-10-31T06:53:47;40.67;;;20.30;;
68940;SDS011;55982;51.476;7.552;2022-10-31T06:56:12;41.58;;;19.52;;
68940;SDS011;55982;51.476;7.552;2022-10-31T06:58:37;38.17;;;18.42;;
68940;SDS011;55982;51.476;7.552;2022-10-31T07:01:03;40.33;;;19.10;;
68940;SDS011;55982;51.476;7.552;2022-10-31T07:03:28;36.22;;;17.73;;
68940;SDS011;55982;51.476;7.552;2022-10-31T07:05:57;39.75;;;19.30;;
68940;SDS011;55982;51.476;7.552;2022-10-31T07:08:22;42.15;;;18.55;;
68940;SDS011;55982;51.476;7.552;2022-10-31T07:10:52;36.67;;;18.10;;
68940;SDS011;55982;51.476;7.552;2022-10-31T07:13:19;41.38;;;17.65;;
68940;SDS011;55982;51.476;7.552;2022-10-31T07:15:49;37.95;;;18.08;;
68940;SDS011;55982;51.476;7.552;2022-10-31T07:18:15;38.05;;;18.63;;
68940;SDS011;55982;51.476;7.552;2022-10-31T07:20:40;42.03;;;19.75;;
68940;SDS011;55982;51.476;7.552;2022-10-31T07:23:06;34.67;;;17.85;;
68940;SDS011;55982;51.476;7.552;2022-10-31T07:25:32;35.25;;;16.88;;
68940;SDS011;55982;51.476;7.552;2022-10-31T07:27:58;30.98;;;16.42;;
68940;SDS011;55982;51.476;7.552;2022-10-31T07:30:23;34.08;;;16.95;;
68940;SDS011;55982;51.476;7.552;2022-10-31T07:32:49;32.80;;;16.45;;
68940;SDS011;55982;51.476;7.552;2022-10-31T07:35:16;33.03;;;16.10;;
68940;SDS011;55982;51.476;7.552;2022-10-31T07:37:43;35.95;;;15.68;;
68940;SDS011;55982;51.476;7.552;2022-10-31T07:40:08;34.33;;;16.13;;
68940;SDS011;55982;51.476;7.552;2022-10-31T07:42:35;35.17;;;15.45;;
68940;SDS011;55982;51.476;7.552;2022-10-31T07:45:01;41.60;;;16.00;;
68940;SDS011;55982;51.476;7.552;2022-10-31T07:47:27;34.55;;;14.88;;
68940;SDS011;55982;51.476;7.552;2022-10-31T07:49:52;28.63;;;14.65;;
68940;SDS011;55982;51.476;7.552;2022-10-31T07:52:18;27.38;;;14.27;;
68940;SDS011;55982;51.476;7.552;2022-10-31T07:54:43;24.92;;;13.65;;
68940;SDS011;55982;51.476;7.552;2022-10-31T07:57:08;29.90;;;12.98;;
68940;SDS011;55982;51.476;7.552;2022-10-31T07:59:34;26.23;;;14.45;;
68940;SDS011;55982;51.476;7.552;2022-10-31T08:01:59;32.25;;;14.07;;
68940;SDS011;55982;51.476;7.552;2022-10-31T08:04:24;27.23;;;14.60;;
68940;SDS011;55982;51.476;7.552;2022-10-31T08:06:50;27.10;;;14.23;;
68940;SDS011;55982;51.476;7.552;2022-10-31T08:09:15;30.10;;;14.90;;
68940;SDS011;55982;51.476;7.552;2022-10-31T08:11:41;27.27;;;14.35;;
68940;SDS011;55982;51.476;7.552;2022-10-31T08:14:06;26.83;;;14.48;;
68940;SDS011;55982;51.476;7.552;2022-10-31T08:16:31;29.67;;;13.80;;
68940;SDS011;55982;51.476;7.552;2022-10-31T08:18:56;31.90;;;13.95;;
68940;SDS011;55982;51.476;7.552;2022-10-31T08:21:22;28.45;;;14.38;;
68940;SDS011;55982;51.476;7.552;2022-10-31T08:23:47;34.00;;;14.38;;
68940;SDS011;55982;51.476;7.552;2022-10-31T08:26:13;26.35;;;12.70;;
68940;SDS011;55982;51.476;7.552;2022-10-31T08:28:38;36.22;;;12.85;;
68940;SDS011;55982;51.476;7.552;2022-10-31T08:31:03;35.42;;;13.38;;
68940;SDS011;55982;51.476;7.552;2022-10-31T08:33:29;28.58;;;12.88;;
68940;SDS011;55982;51.476;7.552;2022-10-31T08:35:55;23.25;;;11.85;;
68940;SDS011;55982;51.476;7.552;2022-10-31T08:38:23;24.88;;;12.10;;
68940;SDS011;55982;51.476;7.552;2022-10-31T08:40:48;29.05;;;11.98;;
68940;SDS011;55982;51.476;7.552;2022-10-31T08:43:14;27.60;;;12.25;;
68940;SDS011;55982;51.476;7.552;2022-10-31T08:45:42;30.30;;;12.98;;
68940;SDS011;55982;51.476;7.552;2022-10-31T08:48:10;27.58;;;12.55;;
68940;SDS011;55982;51.476;7.552;2022-10-31T08:50:37;27.05;;;12.40;;
68940;SDS011;55982;51.476;7.552;2022-10-31T08:53:13;26.48;;;12.68;;
68940;SDS011;55982;51.476;7.552;2022-10-31T08:55:40;26.50;;;12.43;;
68940;SDS011;55982;51.476;7.552;2022-10-31T08:58:09;29.10;;;12.40;;
68940;SDS011;55982;51.476;7.552;2022-10-31T09:00:36;29.20;;;12.77;;
68940;SDS011;55982;51.476;7.552;2022-10-31T09:03:03;35.70;;;13.75;;
68940;SDS011;55982;51.476;7.552;2022-10-31T09:05:30;32.53;;;13.43;;
68940;SDS011;55982;51.476;7.552;2022-10-31T09:07:57;30.73;;;13.88;;
68940;SDS011;55982;51.476;7.552;2022-10-31T09:10:23;28.35;;;12.50;;
68940;SDS011;55982;51.476;7.552;2022-10-31T09:15:46;31.80;;;14.07;;
68940;SDS011;55982;51.476;7.552;2022-10-31T09:18:15;27.17;;;13.80;;
68940;SDS011;55982;51.476;7.552;2022-10-31T09:20:43;37.00;;;13.75;;
68940;SDS011;55982;51.476;7.552;2022-10-31T09:23:11;28.73;;;13.35;;
68940;SDS011;55982;51.476;7.552;2022-10-31T09:25:38;32.03;;;13.20;;
68940;SDS011;55982;51.476;7.552;2022-10-31T09:28:05;33.25;;;14.88;;
68940;SDS011;55982;51.476;7.552;2022-10-31T09:30:32;29.48;;;14.77;;
68940;SDS011;55982;51.476;7.552;2022-10-31T09:33:03;36.95;;;16.23;;
68940;SDS011;55982;51.476;7.552;2022-10-31T09:35:30;34.22;;;15.63;;
68940;SDS011;55982;51.476;7.552;2022-10-31T09:37:56;33.40;;;16.15;;
68940;SDS011;55982;51.476;7.552;2022-10-31T09:40:24;33.03;;;16.20;;
68940;SDS011;55982;51.476;7.552;2022-10-31T09:43:02;31.33;;;15.32;;
68940;SDS011;55982;51.476;7.552;2022-10-31T09:51:30;37.60;;;18.13;;
68940;SDS011;55982;51.476;7.552;2022-10-31T09:54:05;37.55;;;17.77;;
68940;SDS011;55982;51.476;7.552;2022-10-31T09:56:35;41.42;;;17.02;;
68940;SDS011;55982;51.476;7.552;2022-10-31T09:59:03;35.17;;;17.10;;
68940;SDS011;55982;51.476;7.552;2022-10-31T10:06:49;37.90;;;16.65;;
68940;SDS011;55982;51.476;7.552;2022-10-31T10:09:16;36.20;;;17.08;;
68940;SDS011;55982;51.476;7.552;2022-10-31T10:11:54;42.10;;;17.02;;
68940;SDS011;55982;51.476;7.552;2022-10-31T10:17:26;45.60;;;18.35;;
68940;SDS011;55982;51.476;7.552;2022-10-31T10:20:11;36.55;;;17.33;;
68940;SDS011;55982;51.476;7.552;2022-10-31T10:22:41;41.28;;;17.08;;
68940;SDS011;55982;51.476;7.552;2022-10-31T10:25:22;34.13;;;17.25;;
68940;SDS011;55982;51.476;7.552;2022-10-31T10:33:13;35.67;;;17.92;;
68940;SDS011;55982;51.476;7.552;2022-10-31T10:35:50;34.58;;;17.50;;
68940;SDS011;55982;51.476;7.552;2022-10-31T10:38:26;34.85;;;17.98;;
68940;SDS011;55982;51.476;7.552;2022-10-31T10:40:59;32.97;;;17.50;;
68940;SDS011;55982;51.476;7.552;2022-10-31T10:43:31;37.95;;;18.05;;
68940;SDS011;55982;51.476;7.552;2022-10-31T10:46:02;33.38;;;18.40;;
68940;SDS011;55982;51.476;7.552;2022-10-31T10:51:40;35.55;;;17.80;;
68940;SDS011;55982;51.476;7.552;2022-10-31T10:58:00;40.03;;;18.42;;
68940;SDS011;55982;51.476;7.552;2022-10-31T11:00:32;33.55;;;16.65;;
68940;SDS011;55982;51.476;7.552;2022-10-31T11:03:01;35.38;;;17.02;;
68940;SDS011;55982;51.476;7.552;2022-10-31T11:08:10;33.28;;;15.95;;
68940;SDS011;55982;51.476;7.552;2022-10-31T11:10:55;36.97;;;16.88;;
68940;SDS011;55982;51.476;7.552;2022-10-31T11:13:30;35.42;;;14.90;;
68940;SDS011;55982;51.476;7.552;2022-10-31T11:16:02;32.83;;;14.18;;
68940;SDS011;55982;51.476;7.552;2022-10-31T11:18:32;27.70;;;13.60;;
68940;SDS011;55982;51.476;7.552;2022-10-31T11:21:00;32.78;;;15.02;;
68940;SDS011;55982;51.476;7.552;2022-10-31T11:23:29;31.85;;;14.02;;
68940;SDS011;55982;51.476;7.552;2022-10-31T11:26:02;30.85;;;15.25;;
68940;SDS011;55982;51.476;7.552;2022-10-31T11:28:29;33.70;;;14.23;;
68940;SDS011;55982;51.476;7.552;2022-10-31T11:31:01;32.00;;;14.73;;
68940;SDS011;55982;51.476;7.552;2022-10-31T11:33:33;24.65;;;13.52;;
68940;SDS011;55982;51.476;7.552;2022-10-31T11:36:21;28.67;;;14.77;;
68940;SDS011;55982;51.476;7.552;2022-10-31T11:38:49;25.30;;;13.38;;
68940;SDS011;55982;51.476;7.552;2022-10-31T11:41:23;27.70;;;12.65;;
68940;SDS011;55982;51.476;7.552;2022-10-31T11:46:53;29.23;;;13.35;;
68940;SDS011;55982;51.476;7.552;2022-10-31T11:52:15;28.58;;;12.05;;
68940;SDS011;55982;51.476;7.552;2022-10-31T12:00:03;21.98;;;10.95;;
68940;SDS011;55982;51.476;7.552;2022-10-31T12:02:31;17.70;;;10.60;;
68940;SDS011;55982;51.476;7.552;2022-10-31T12:04:59;26.77;;;11.48;;
68940;SDS011;55982;51.476;7.552;2022-10-31T12:07:46;27.77;;;11.18;;
68940;SDS011;55982;51.476;7.552;2022-10-31T12:10:13;21.85;;;10.82;;
68940;SDS011;55982;51.476;7.552;2022-10-31T12:12:53;22.92;;;10.60;;
68940;SDS011;55982;51.476;7.552;2022-10-31T12:15:41;26.65;;;10.80;;
68940;SDS011;55982;51.476;7.552;2022-10-31T12:18:28;24.40;;;11.88;;
68940;SDS011;55982;51.476;7.552;2022-10-31T12:21:30;25.95;;;11.45;;
68940;SDS011;55982;51.476;7.552;2022-10-31T12:24:17;29.58;;;11.75;;
68940;SDS011;55982;51.476;7.552;2022-10-31T12:35:48;20.55;;;11.20;;
68940;SDS011;55982;51.476;7.552;2022-10-31T12:41:15;26.00;;;11.23;;
68940;SDS011;55982;51.476;7.552;2022-10-31T12:44:05;26.27;;;11.13;;
68940;SDS011;55982;51.476;7.552;2022-10-31T12:55:00;24.45;;;10.68;;
68940;SDS011;55982;51.476;7.552;2022-10-31T13:00:19;22.38;;;9.77;;
68940;SDS011;55982;51.476;7.552;2022-10-31T13:02:56;22.23;;;9.45;;
68940;SDS011;55982;51.476;7.552;2022-10-31T13:05:26;25.13;;;9.45;;
68940;SDS011;55982;51.476;7.552;2022-10-31T13:07:58;20.17;;;9.00;;
68940;SDS011;55982;51.476;7.552;2022-10-31T13:16:16;20.33;;;10.35;;
68940;SDS011;55982;51.476;7.552;2022-10-31T13:18:48;28.25;;;10.52;;
68940;SDS011;55982;51.476;7.552;2022-10-31T13:21:30;21.65;;;9.93;;
68940;SDS011;55982;51.476;7.552;2022-10-31T13:24:02;23.88;;;10.30;;
68940;SDS011;55982;51.476;7.552;2022-10-31T13:29:39;19.67;;;9.95;;
68940;SDS011;55982;51.476;7.552;2022-10-31T13:32:14;23.20;;;9.93;;
68940;SDS011;55982;51.476;7.552;2022-10-31T13:34:42;17.10;;;8.73;;
68940;SDS011;55982;51.476;7.552;2022-10-31T13:42:54;19.80;;;9.82;;
68940;SDS011;55982;51.476;7.552;2022-10-31T13:45:31;18.50;;;8.30;;
68940;SDS011;55982;51.476;7.552;2022-10-31T13:50:27;20.65;;;9.27;;
68940;SDS011;55982;51.476;7.552;2022-10-31T13:55:40;21.90;;;9.55;;
68940;SDS011;55982;51.476;7.552;2022-10-31T13:58:26;17.67;;;8.43;;
68940;SDS011;55982;51.476;7.552;2022-10-31T14:01:02;23.08;;;9.18;;
68940;SDS011;55982;51.476;7.552;2022-10-31T14:03:29;20.45;;;7.75;;
68940;SDS011;55982;51.476;7.552;2022-10-31T14:05:55;17.52;;;8.45;;
68940;SDS011;55982;51.476;7.552;2022-10-31T14:08:22;16.08;;;7.97;;
68940;SDS011;55982;51.476;7.552;2022-10-31T14:10:52;22.02;;;7.90;;
68940;SDS011;55982;51.476;7.552;2022-10-31T14:13:28;19.77;;;7.93;;
68940;SDS011;55982;51.476;7.552;2022-10-31T14:16:42;21.83;;;7.93;;
68940;SDS011;55982;51.476;7.552;2022-10-31T14:19:06;24.20;;;8.15;;
68940;SDS011;55982;51.476;7.552;2022-10-31T14:21:48;20.85;;;8.85;;
68940;SDS011;55982;51.476;7.552;2022-10-31T14:27:33;21.15;;;9.00;;
68940;SDS011;55982;51.476;7.552;2022-10-31T14:29:44;21.40;;;9.10;;
68940;SDS011;55982;51.476;7.552;2022-10-31T14:53:00;24.25;;;8.07;;
68940;SDS011;55982;51.476;7.552;2022-10-31T14:55:28;22.35;;;8.65;;
68940;SDS011;55982;51.476;7.552;2022-10-31T14:57:55;22.38;;;9.13;;
68940;SDS011;55982;51.476;7.552;2022-10-31T15:00:25;19.20;;;8.10;;
68940;SDS011;55982;51.476;7.552;2022-10-31T15:03:04;19.73;;;8.27;;
68940;SDS011;55982;51.476;7.552;2022-10-31T15:05:31;22.83;;;8.90;;
68940;SDS011;55982;51.476;7.552;2022-10-31T15:07:59;20.25;;;8.52;;
68940;SDS011;55982;51.476;7.552;2022-10-31T15:10:26;20.10;;;8.32;;
68940;SDS011;55982;51.476;7.552;2022-10-31T15:12:55;23.88;;;8.95;;
68940;SDS011;55982;51.476;7.552;2022-10-31T15:15:21;23.10;;;8.63;;
68940;SDS011;55982;51.476;7.552;2022-10-31T15:17:54;22.50;;;8.20;;
68940;SDS011;55982;51.476;7.552;2022-10-31T15:20:23;18.85;;;8.32;;
68940;SDS011;55982;51.476;7.552;2022-10-31T15:22:51;15.75;;;7.70;;
68940;SDS011;55982;51.476;7.552;2022-10-31T15:25:22;20.70;;;8.60;;
68940;SDS011;55982;51.476;7.552;2022-10-31T15:27:49;24.15;;;8.25;;
68940;SDS011;55982;51.476;7.552;2022-10-31T15:30:17;18.88;;;8.43;;
68940;SDS011;55982;51.476;7.552;2022-10-31T15:32:44;17.40;;;8.82;;
68940;SDS011;55982;51.476;7.552;2022-10-31T15:35:10;25.45;;;8.70;;
68940;SDS011;55982;51.476;7.552;2022-10-31T15:37:43;21.95;;;8.70;;
68940;SDS011;55982;51.476;7.552;2022-10-31T15:40:14;22.25;;;8.63;;
68940;SDS011;55982;51.476;7.552;2022-10-31T15:42:41;24.75;;;9.00;;
68940;SDS011;55982;51.476;7.552;2022-10-31T15:47:36;18.63;;;8.52;;
68940;SDS011;55982;51.476;7.552;2022-10-31T15:50:03;26.70;;;9.02;;
68940;SDS011;55982;51.476;7.552;2022-10-31T15:52:43;22.55;;;9.00;;
68940;SDS011;55982;51.476;7.552;2022-10-31T15:55:15;22.13;;;8.23;;
68940;SDS011;55982;51.476;7.552;2022-10-31T15:57:47;20.83;;;8.73;;
68940;SDS011;55982;51.476;7.552;2022-10-31T16:02:47;17.08;;;7.78;;
68940;SDS011;55982;51.476;7.552;2022-10-31T16:05:18;21.80;;;8.27;;
68940;SDS011;55982;51.476;7.552;2022-10-31T16:07:48;17.17;;;8.20;;
68940;SDS011;55982;51.476;7.552;2022-10-31T16:10:22;21.25;;;8.20;;
68940;SDS011;55982;51.476;7.552;2022-10-31T16:12:51;19.83;;;8.15;;
68940;SDS011;55982;51.476;7.552;2022-10-31T16:15:18;20.27;;;7.93;;
68940;SDS011;55982;51.476;7.552;2022-10-31T16:17:46;19.10;;;7.55;;
68940;SDS011;55982;51.476;7.552;2022-10-31T16:20:19;17.85;;;7.28;;
68940;SDS011;55982;51.476;7.552;2022-10-31T16:22:48;16.55;;;7.82;;
68940;SDS011;55982;51.476;7.552;2022-10-31T16:25:24;16.10;;;7.05;;
68940;SDS011;55982;51.476;7.552;2022-10-31T16:27:52;13.13;;;6.70;;
68940;SDS011;55982;51.476;7.552;2022-10-31T16:30:37;19.33;;;6.68;;
68940;SDS011;55982;51.476;7.552;2022-10-31T16:33:03;14.52;;;6.93;;
68940;SDS011;55982;51.476;7.552;2022-10-31T16:35:34;18.33;;;7.20;;
68940;SDS011;55982;51.476;7.552;2022-10-31T16:38:01;16.50;;;6.25;;
68940;SDS011;55982;51.476;7.552;2022-10-31T16:40:27;16.60;;;7.00;;
68940;SDS011;55982;51.476;7.552;2022-10-31T16:42:53;18.33;;;6.43;;
68940;SDS011;55982;51.476;7.552;2022-10-31T16:45:22;13.68;;;6.00;;
68940;SDS011;55982;51.476;7.552;2022-10-31T16:47:48;13.65;;;6.15;;
68940;SDS011;55982;51.476;7.552;2022-10-31T16:50:16;22.88;;;6.85;;
68940;SDS011;55982;51.476;7.552;2022-10-31T16:52:46;16.42;;;5.88;;
68940;SDS011;55982;51.476;7.552;2022-10-31T16:55:15;20.67;;;6.18;;
68940;SDS011;55982;51.476;7.552;2022-10-31T16:57:48;14.05;;;5.70;;
68940;SDS011;55982;51.476;7.552;2022-10-31T17:00:20;14.85;;;5.57;;
68940;SDS011;55982;51.476;7.552;2022-10-31T17:02:48;18.33;;;5.90;;
68940;SDS011;55982;51.476;7.552;2022-10-31T17:05:16;21.73;;;8.32;;
68940;SDS011;55982;51.476;7.552;2022-10-31T17:07:43;14.18;;;6.43;;
68940;SDS011;55982;51.476;7.552;2022-10-31T17:10:09;14.93;;;5.57;;
68940;SDS011;55982;51.476;7.552;2022-10-31T17:12:36;14.70;;;4.78;;
68940;SDS011;55982;51.476;7.552;2022-10-31T17:15:04;17.60;;;5.40;;